Time;durP1;ratioP1;P1;durP2;ratioP2;P2;SDS_P1;SDS_P2;PMS_P1;PMS_P2;Temp;Humidity;BMP_temperature;BMP_pressure;BME280_temperature;BME280_humidity;BME280_pressure;Samples;Min_cycle;Max_cycle;Signal;HPM_P1;HPM_P2
2022/09/16 00:00:52;;;;;;;0.35;0.15;;;22.70;83.60;;;;;;5063608;28;45373;-74
2022/09/16 00:03:20;;;;;;;0.10;0.10;;;22.80;83.40;;;;;;5062881;28;45364;-75
2022/09/16 00:05:48;;;;;;;0.03;0.03;;;22.80;83.30;;;;;;5064217;28;45357;-74
2022/09/16 00:08:16;;;;;;;0.25;0.20;;;22.80;83.30;;;;;;5063691;28;46385;-74
2022/09/16 00:10:44;;;;;;;0.10;0.10;;;22.80;83.40;;;;;;5063098;28;45337;-74
2022/09/16 00:13:12;;;;;;;0.10;0.10;;;22.80;83.30;;;;;;5063219;28;45375;-74
2022/09/16 00:15:42;;;;;;;0.85;0.20;;;22.80;83.60;;;;;;5063233;28;45249;-74
2022/09/16 00:18:09;;;;;;;0.10;0.10;;;22.80;83.20;;;;;;5063822;28;46773;-74
2022/09/16 00:20:36;;;;;;;0.10;0.10;;;22.80;83.10;;;;;;5063823;28;45221;-74
2022/09/16 00:23:03;;;;;;;0.05;0.05;;;22.80;83.00;;;;;;5064249;28;45384;-74
2022/09/16 00:25:30;;;;;;;0.17;0.17;;;22.80;82.90;;;;;;5063927;28;45432;-74
2022/09/16 00:27:58;;;;;;;0.82;0.15;;;22.80;83.50;;;;;;5064770;28;45399;-74
2022/09/16 00:30:25;;;;;;;0.60;0.20;;;22.80;83.10;;;;;;5063157;28;45397;-74
2022/09/16 00:32:51;;;;;;;0.28;0.20;;;22.80;83.50;;;;;;5064283;28;45383;-74
2022/09/16 00:35:18;;;;;;;0.35;0.30;;;22.80;83.60;;;;;;5060890;28;45370;-74
2022/09/16 00:37:45;;;;;;;0.40;0.20;;;22.80;84.20;;;;;;5049448;28;48746;-74
2022/09/16 00:40:12;;;;;;;0.10;0.10;;;22.80;84.00;;;;;;5064225;28;45266;-74
2022/09/16 00:42:39;;;;;;;0.45;0.10;;;22.70;84.00;;;;;;5063324;28;45366;-75
2022/09/16 00:45:15;;;;;;;1.05;0.10;;;22.70;83.80;;;;;;5064308;28;45574;-74
2022/09/16 00:47:46;;;;;;;1.05;0.10;;;22.70;84.00;;;;;;5063925;28;45460;-74
2022/09/16 00:50:18;;;;;;;0.52;0.20;;;22.70;83.80;;;;;;5064086;28;45215;-74
2022/09/16 00:52:46;;;;;;;0.20;0.10;;;22.70;83.60;;;;;;5060720;28;45388;-75
2022/09/16 00:55:17;;;;;;;0.38;0.10;;;22.70;83.60;;;;;;5053884;28;45593;-74
2022/09/16 00:57:46;;;;;;;0.30;0.10;;;22.70;83.60;;;;;;5063590;28;45435;-75
2022/09/16 01:00:14;;;;;;;0.28;0.00;;;22.80;83.90;;;;;;5063384;28;45446;-74
2022/09/16 01:02:43;;;;;;;0.17;0.10;;;22.80;83.20;;;;;;5063614;28;45205;-74
2022/09/16 01:05:13;;;;;;;0.10;0.08;;;22.80;83.80;;;;;;5078298;28;45681;-74
2022/09/16 01:07:43;;;;;;;0.10;0.10;;;22.80;83.30;;;;;;5050314;28;47434;-74
2022/09/16 01:10:11;;;;;;;0.35;0.10;;;22.80;83.10;;;;;;5059848;28;45350;-74
2022/09/16 01:12:39;;;;;;;0.15;0.13;;;22.80;83.20;;;;;;5063467;28;45495;-74
2022/09/16 01:15:07;;;;;;;0.40;0.10;;;22.70;83.40;;;;;;5062640;28;45546;-74
2022/09/16 01:17:53;;;;;;;0.35;0.10;;;22.80;83.30;;;;;;5062999;28;45329;-74
2022/09/16 01:20:52;;;;;;;0.20;0.13;;;22.80;83.10;;;;;;5064217;28;45237;-74
2022/09/16 01:23:45;;;;;;;0.20;0.20;;;22.80;83.30;;;;;;5068839;28;45318;-74
2022/09/16 01:26:42;;;;;;;0.10;0.10;;;22.70;83.10;;;;;;5063330;28;45560;-74
2022/09/16 01:29:27;;;;;;;0.25;0.05;;;22.70;83.30;;;;;;5051367;28;47966;-74
2022/09/16 01:32:02;;;;;;;1.00;0.20;;;22.70;82.80;;;;;;5061309;28;45376;-74
2022/09/16 01:34:38;;;;;;;0.15;0.10;;;22.70;83.20;;;;;;5062792;28;45263;-75
2022/09/16 01:37:12;;;;;;;0.28;0.10;;;22.70;83.50;;;;;;5066426;28;45378;-74
2022/09/16 01:39:49;;;;;;;0.38;0.20;;;22.70;83.60;;;;;;5051028;28;48266;-74
2022/09/16 01:42:34;;;;;;;0.40;0.20;;;22.70;83.60;;;;;;5057580;28;45347;-74
2022/09/16 01:45:06;;;;;;;0.55;0.20;;;22.70;83.50;;;;;;5066360;28;45422;-74
2022/09/16 01:47:37;;;;;;;0.93;0.10;;;22.70;83.50;;;;;;5045974;28;45429;-74
2022/09/16 01:50:14;;;;;;;0.52;0.20;;;22.70;83.10;;;;;;5051862;28;45432;-74
2022/09/16 01:52:49;;;;;;;0.20;0.20;;;22.70;83.30;;;;;;5065644;28;45352;-74
2022/09/16 01:55:22;;;;;;;0.85;0.10;;;22.70;83.30;;;;;;5066007;28;45415;-74
2022/09/16 01:57:53;;;;;;;0.17;0.10;;;22.70;83.20;;;;;;5065959;28;45482;-74
2022/09/16 02:00:21;;;;;;;0.75;0.30;;;22.70;83.10;;;;;;5065453;28;48060;-74
2022/09/16 02:02:54;;;;;;;0.40;0.20;;;22.70;83.30;;;;;;5064083;28;45508;-74
2022/09/16 02:05:26;;;;;;;0.20;0.20;;;22.70;83.10;;;;;;5065707;28;45269;-74
2022/09/16 02:08:00;;;;;;;0.88;0.30;;;22.70;83.00;;;;;;5060212;28;45324;-75
2022/09/16 02:10:29;;;;;;;2.22;0.28;;;22.70;82.60;;;;;;5057369;28;46056;-74
2022/09/16 02:13:03;;;;;;;1.65;0.45;;;22.70;82.90;;;;;;5073727;28;45257;-74
2022/09/16 02:15:32;;;;;;;1.08;0.17;;;22.70;82.90;;;;;;5072378;28;45309;-74
2022/09/16 02:18:05;;;;;;;0.43;0.25;;;22.70;82.80;;;;;;5065974;28;45382;-74
2022/09/16 02:20:35;;;;;;;0.20;0.10;;;22.70;82.70;;;;;;5056008;28;45439;-74
2022/09/16 02:23:07;;;;;;;0.30;0.20;;;22.70;82.80;;;;;;5062166;28;46010;-74
2022/09/16 02:25:37;;;;;;;0.10;0.10;;;22.70;82.80;;;;;;5066037;28;45401;-75
2022/09/16 02:28:11;;;;;;;0.45;0.30;;;22.70;82.80;;;;;;5065843;28;45363;-74
2022/09/16 02:30:40;;;;;;;0.77;0.20;;;22.70;82.70;;;;;;5071162;28;47290;-74
2022/09/16 02:33:10;;;;;;;1.95;0.17;;;22.70;82.60;;;;;;5062111;28;45456;-74
2022/09/16 02:35:39;;;;;;;0.10;0.10;;;22.70;82.50;;;;;;5063290;28;45415;-74
2022/09/16 02:38:11;;;;;;;1.40;0.13;;;22.70;82.60;;;;;;5064867;28;45425;-74
2022/09/16 02:40:44;;;;;;;0.22;0.20;;;22.70;82.50;;;;;;5065185;28;46676;-74
2022/09/16 02:43:11;;;;;;;0.10;0.10;;;22.70;82.50;;;;;;5062314;28;45688;-75
2022/09/16 02:45:48;;;;;;;0.65;0.25;;;22.70;82.60;;;;;;5065100;28;45407;-74
2022/09/16 02:48:24;;;;;;;0.28;0.20;;;22.70;82.60;;;;;;5048763;28;45423;-74
2022/09/16 02:50:57;;;;;;;0.10;0.10;;;22.70;82.60;;;;;;5071546;28;46445;-74
2022/09/16 02:53:31;;;;;;;0.40;0.15;;;22.70;82.90;;;;;;5064698;28;45313;-74
2022/09/16 02:56:05;;;;;;;0.55;0.22;;;22.70;82.40;;;;;;5068642;28;45335;-74
2022/09/16 02:58:32;;;;;;;0.52;0.22;;;22.70;82.20;;;;;;5055028;28;45409;-74
2022/09/16 03:00:59;;;;;;;0.30;0.10;;;22.70;82.30;;;;;;5060626;28;45261;-74
2022/09/16 03:03:28;;;;;;;0.30;0.20;;;22.70;82.30;;;;;;5071184;28;45202;-74
2022/09/16 03:06:12;;;;;;;0.30;0.20;;;22.70;82.20;;;;;;5065091;28;45388;-74
2022/09/16 03:08:40;;;;;;;1.10;0.32;;;22.70;81.90;;;;;;5056486;28;45761;-74
2022/09/16 03:11:18;;;;;;;0.10;0.10;;;22.70;82.00;;;;;;5061519;28;47409;-74
2022/09/16 03:13:53;;;;;;;0.50;0.20;;;22.80;82.00;;;;;;5058738;28;45277;-74
2022/09/16 03:16:25;;;;;;;0.25;0.20;;;22.70;82.00;;;;;;5063361;28;45635;-74
2022/09/16 03:19:03;;;;;;;0.13;0.13;;;22.70;81.90;;;;;;5064628;28;45483;-74
2022/09/16 03:21:36;;;;;;;0.03;0.03;;;22.70;81.90;;;;;;5065092;28;47070;-74
2022/09/16 03:24:09;;;;;;;0.68;0.17;;;22.70;81.50;;;;;;5066116;28;45309;-74
2022/09/16 03:26:46;;;;;;;1.00;0.30;;;22.70;81.70;;;;;;5064554;28;45487;-74
2022/09/16 03:29:19;;;;;;;0.57;0.20;;;22.70;81.70;;;;;;5064494;28;45325;-74
2022/09/16 03:31:51;;;;;;;0.15;0.10;;;22.70;81.80;;;;;;5064618;28;45382;-74
2022/09/16 03:34:25;;;;;;;0.63;0.40;;;22.70;81.20;;;;;;5064594;28;45362;-74
2022/09/16 03:36:59;;;;;;;3.30;0.40;;;22.70;81.40;;;;;;5064503;28;45191;-74
2022/09/16 03:39:26;;;;;;;0.10;0.10;;;22.70;81.40;;;;;;5064425;28;45615;-74
2022/09/16 03:41:54;;;;;;;0.30;0.20;;;22.70;81.30;;;;;;5056541;28;45376;-74
2022/09/16 03:44:20;;;;;;;0.75;0.25;;;22.70;81.40;;;;;;5064598;28;45960;-74
2022/09/16 03:46:47;;;;;;;0.40;0.20;;;22.70;81.20;;;;;;5064068;28;45446;-74
2022/09/16 03:49:14;;;;;;;0.20;0.17;;;22.70;82.30;;;;;;5064112;28;45444;-74
2022/09/16 03:51:42;;;;;;;0.10;0.10;;;22.70;81.20;;;;;;5064014;28;46482;-75
2022/09/16 03:54:09;;;;;;;0.47;0.30;;;22.70;81.40;;;;;;5064320;28;45540;-74
2022/09/16 03:56:36;;;;;;;0.30;0.20;;;22.70;80.60;;;;;;5064555;28;45483;-74
2022/09/16 03:59:03;;;;;;;0.20;0.20;;;22.70;80.60;;;;;;5064553;28;45401;-74
2022/09/16 04:01:29;;;;;;;0.73;0.10;;;22.70;81.10;;;;;;5063619;28;48444;-75
2022/09/16 04:03:56;;;;;;;0.75;0.10;;;22.70;81.10;;;;;;5057592;28;45224;-74
2022/09/16 04:06:23;;;;;;;0.30;0.20;;;22.70;80.60;;;;;;5063716;28;45333;-74
2022/09/16 04:08:52;;;;;;;0.50;0.22;;;22.70;80.60;;;;;;5072944;28;45245;-74
2022/09/16 04:11:19;;;;;;;0.20;0.10;;;22.70;80.60;;;;;;5064182;28;45322;-74
2022/09/16 04:13:52;;;;;;;0.40;0.17;;;22.70;80.60;;;;;;5064307;28;45318;-74
2022/09/16 04:16:20;;;;;;;0.40;0.10;;;22.70;80.60;;;;;;5072858;28;45369;-74
2022/09/16 04:18:48;;;;;;;0.15;0.13;;;22.70;80.60;;;;;;5064319;28;45624;-74
2022/09/16 04:21:17;;;;;;;0.45;0.30;;;22.70;80.60;;;;;;5063420;28;46606;-74
2022/09/16 04:23:44;;;;;;;0.10;0.10;;;22.70;80.60;;;;;;5074756;28;45400;-74
2022/09/16 04:26:12;;;;;;;0.20;0.20;;;22.70;80.60;;;;;;5064900;28;45292;-74
2022/09/16 04:28:39;;;;;;;0.10;0.10;;;22.70;80.60;;;;;;5068368;28;45652;-75
2022/09/16 04:31:10;;;;;;;0.32;0.20;;;22.70;80.60;;;;;;5062628;28;46710;-74
2022/09/16 04:33:37;;;;;;;0.20;0.10;;;22.70;80.60;;;;;;5059794;28;45231;-74
2022/09/16 04:36:05;;;;;;;0.85;0.30;;;22.60;80.50;;;;;;5063302;28;45430;-74
2022/09/16 04:38:32;;;;;;;0.13;0.13;;;22.60;80.50;;;;;;5064506;28;45207;-74
2022/09/16 04:41:03;;;;;;;1.58;0.30;;;22.70;80.60;;;;;;5063285;28;48033;-74
2022/09/16 04:43:31;;;;;;;0.15;0.15;;;22.70;81.10;;;;;;5057166;28;45198;-74
2022/09/16 04:45:58;;;;;;;0.38;0.28;;;22.70;80.60;;;;;;5060850;28;45367;-75
2022/09/16 04:48:26;;;;;;;0.40;0.20;;;22.70;80.60;;;;;;5056413;28;45241;-74
2022/09/16 04:50:53;;;;;;;0.30;0.10;;;22.60;80.50;;;;;;5060536;28;45575;-75
2022/09/16 04:53:20;;;;;;;0.20;0.20;;;22.70;80.30;;;;;;5063074;28;45501;-74
2022/09/16 04:55:48;;;;;;;0.65;0.10;;;22.70;80.60;;;;;;5063347;28;45368;-74
2022/09/16 04:58:14;;;;;;;0.30;0.22;;;22.70;80.60;;;;;;5064030;28;45314;-75
2022/09/16 05:00:43;;;;;;;0.30;0.20;;;22.70;80.60;;;;;;5062327;28;47266;-74
2022/09/16 05:03:10;;;;;;;0.55;0.30;;;22.70;80.60;;;;;;5055601;28;45330;-74
2022/09/16 05:05:37;;;;;;;0.20;0.10;;;22.70;80.60;;;;;;5062613;28;45316;-74
2022/09/16 05:08:04;;;;;;;0.30;0.20;;;22.70;80.60;;;;;;5058906;28;45467;-74
2022/09/16 05:10:38;;;;;;;0.43;0.30;;;22.70;80.60;;;;;;5063360;28;46723;-74
2022/09/16 05:13:05;;;;;;;0.22;0.20;;;22.70;80.60;;;;;;5063502;28;45502;-74
2022/09/16 05:15:33;;;;;;;0.20;0.20;;;22.70;80.60;;;;;;5062702;28;45422;-74
2022/09/16 05:18:02;;;;;;;0.20;0.20;;;22.70;80.60;;;;;;5066594;28;45277;-74
2022/09/16 05:20:28;;;;;;;2.10;0.30;;;22.70;80.70;;;;;;5061590;28;46428;-75
2022/09/16 05:22:55;;;;;;;1.45;0.20;;;22.70;80.60;;;;;;5066269;28;45385;-74
2022/09/16 05:25:22;;;;;;;0.13;0.10;;;22.70;80.60;;;;;;5070499;28;45331;-74
2022/09/16 05:27:49;;;;;;;0.50;0.20;;;22.60;80.50;;;;;;5066421;28;45354;-74
2022/09/16 05:30:16;;;;;;;0.17;0.17;;;22.70;80.60;;;;;;5083613;28;47524;-74
2022/09/16 05:32:43;;;;;;;0.22;0.20;;;22.70;80.60;;;;;;5071138;28;45378;-74
2022/09/16 05:35:11;;;;;;;0.50;0.35;;;22.60;80.50;;;;;;5055805;28;45502;-74
2022/09/16 05:37:37;;;;;;;0.28;0.15;;;22.60;80.50;;;;;;5066674;28;45486;-74
2022/09/16 05:40:05;;;;;;;0.20;0.17;;;22.60;80.50;;;;;;5066200;28;46556;-74
2022/09/16 05:42:32;;;;;;;0.32;0.20;;;22.60;80.50;;;;;;5066520;28;45361;-74
2022/09/16 05:44:59;;;;;;;0.30;0.22;;;22.70;81.60;;;;;;5066343;28;45404;-74
2022/09/16 05:47:26;;;;;;;0.25;0.10;;;22.70;80.60;;;;;;5066252;28;45434;-74
2022/09/16 05:49:53;;;;;;;0.95;0.20;;;22.70;80.60;;;;;;5066115;28;45551;-74
2022/09/16 05:52:23;;;;;;;0.40;0.10;;;22.60;80.50;;;;;;5067530;28;45348;-75
2022/09/16 05:54:49;;;;;;;0.25;0.20;;;22.60;80.20;;;;;;5087407;28;45364;-74
2022/09/16 05:57:16;;;;;;;0.73;0.20;;;22.70;80.60;;;;;;5086585;28;45400;-74
2022/09/16 05:59:43;;;;;;;0.47;0.20;;;22.60;80.50;;;;;;5076811;28;46257;-74
2022/09/16 06:02:11;;;;;;;2.10;0.20;;;22.60;80.50;;;;;;5065588;28;45769;-74
2022/09/16 06:04:38;;;;;;;0.52;0.22;;;22.60;80.50;;;;;;5065432;28;45316;-74
2022/09/16 06:07:06;;;;;;;1.77;0.30;;;22.60;80.50;;;;;;5066401;28;45259;-74
2022/09/16 06:09:34;;;;;;;0.93;0.20;;;22.70;80.10;;;;;;5066010;28;46739;-74
2022/09/16 06:12:01;;;;;;;0.45;0.25;;;22.60;80.30;;;;;;5066516;28;45296;-74
2022/09/16 06:14:28;;;;;;;0.80;0.20;;;22.60;79.70;;;;;;5065940;28;45343;-74
2022/09/16 06:16:54;;;;;;;0.20;0.20;;;22.60;80.10;;;;;;5065691;28;45366;-74
2022/09/16 06:19:21;;;;;;;1.65;0.35;;;22.60;79.60;;;;;;5066147;28;45344;-75
2022/09/16 06:21:48;;;;;;;0.85;0.40;;;22.70;79.60;;;;;;5065805;28;45288;-74
2022/09/16 06:24:17;;;;;;;0.47;0.30;;;22.70;79.70;;;;;;5065988;28;45281;-74
2022/09/16 06:26:46;;;;;;;0.30;0.13;;;22.60;79.80;;;;;;5066157;28;45305;-74
2022/09/16 06:29:14;;;;;;;0.28;0.10;;;22.60;79.40;;;;;;5065600;28;47721;-74
2022/09/16 06:31:41;;;;;;;0.73;0.30;;;22.60;79.60;;;;;;5065964;28;45275;-74
2022/09/16 06:34:13;;;;;;;0.35;0.20;;;22.60;79.90;;;;;;5065509;28;45447;-74
2022/09/16 06:36:40;;;;;;;0.73;0.20;;;22.60;79.80;;;;;;5065853;28;45187;-74
2022/09/16 06:39:07;;;;;;;1.20;0.30;;;22.60;79.40;;;;;;5065878;28;45485;-74
2022/09/16 06:41:34;;;;;;;0.90;0.20;;;22.60;80.10;;;;;;5065677;28;45266;-74
2022/09/16 06:44:02;;;;;;;0.95;0.30;;;22.60;79.70;;;;;;5065923;28;45344;-75
2022/09/16 06:46:30;;;;;;;0.40;0.30;;;22.60;80.10;;;;;;5066654;28;45429;-75
2022/09/16 06:48:58;;;;;;;0.20;0.20;;;22.60;80.50;;;;;;5066302;28;47395;-74
2022/09/16 06:51:26;;;;;;;0.65;0.30;;;22.60;80.40;;;;;;5066165;28;45332;-74
2022/09/16 06:53:55;;;;;;;0.70;0.22;;;22.60;80.00;;;;;;5065931;28;45180;-75
2022/09/16 06:56:22;;;;;;;0.35;0.20;;;22.60;79.30;;;;;;5066279;28;45279;-75
2022/09/16 06:58:51;;;;;;;0.50;0.28;;;22.60;79.50;;;;;;5065650;28;47277;-74
2022/09/16 07:01:22;;;;;;;0.98;0.30;;;22.60;79.10;;;;;;5065318;28;45259;-74
2022/09/16 07:03:50;;;;;;;1.17;0.25;;;22.60;79.30;;;;;;5065414;28;45213;-74
2022/09/16 07:06:18;;;;;;;0.70;0.20;;;22.60;79.30;;;;;;5075424;28;45575;-75
2022/09/16 07:08:45;;;;;;;0.35;0.28;;;22.60;79.10;;;;;;5065189;28;48016;-74
2022/09/16 07:11:14;;;;;;;0.88;0.20;;;22.60;78.90;;;;;;5065236;28;45355;-75
2022/09/16 07:13:41;;;;;;;1.27;0.30;;;22.60;79.40;;;;;;5063722;28;45575;-75
2022/09/16 07:16:09;;;;;;;0.10;0.10;;;22.60;79.10;;;;;;5066320;28;45326;-75
2022/09/16 07:18:38;;;;;;;0.50;0.30;;;22.60;79.40;;;;;;5064875;28;46703;-74
2022/09/16 07:21:07;;;;;;;0.52;0.20;;;22.60;79.20;;;;;;5064439;28;45413;-74
2022/09/16 07:23:36;;;;;;;0.57;0.30;;;22.60;79.20;;;;;;5064756;28;45357;-74
2022/09/16 07:26:04;;;;;;;0.73;0.20;;;22.60;78.80;;;;;;5069782;28;45407;-74
2022/09/16 07:28:32;;;;;;;0.43;0.20;;;22.60;78.80;;;;;;5062723;28;47040;-74
2022/09/16 07:31:01;;;;;;;0.30;0.30;;;22.60;78.80;;;;;;5064394;28;45466;-74
2022/09/16 07:33:28;;;;;;;0.40;0.20;;;22.60;78.70;;;;;;5063755;28;45382;-75
2022/09/16 07:35:59;;;;;;;0.43;0.30;;;22.60;78.00;;;;;;5061222;28;45484;-74
2022/09/16 07:38:26;;;;;;;0.20;0.15;;;22.60;77.10;;;;;;5064054;28;46573;-75
2022/09/16 07:40:54;;;;;;;0.80;0.20;;;22.60;77.30;;;;;;5064899;28;45389;-74
2022/09/16 07:43:21;;;;;;;0.30;0.30;;;22.60;76.80;;;;;;5065664;28;45452;-74
2022/09/16 07:45:56;;;;;;;0.32;0.20;;;22.60;77.50;;;;;;5062646;28;45645;-74
2022/09/16 07:48:22;;;;;;;0.98;0.30;;;22.60;77.80;;;;;;5064728;28;45506;-74
2022/09/16 07:50:55;;;;;;;0.40;0.30;;;22.70;78.20;;;;;;5058236;28;45405;-74
2022/09/16 07:53:23;;;;;;;1.23;0.43;;;22.70;77.80;;;;;;5063645;28;45341;-74
2022/09/16 07:55:50;;;;;;;0.85;0.30;;;22.70;78.70;;;;;;5063938;28;45337;-74
2022/09/16 07:58:17;;;;;;;1.85;0.30;;;22.70;78.70;;;;;;5063727;28;47049;-74
2022/09/16 08:00:44;;;;;;;0.47;0.20;;;22.70;78.60;;;;;;5063026;28;45387;-74
2022/09/16 08:03:11;;;;;;;2.00;0.50;;;22.70;78.40;;;;;;5063952;28;45369;-75
2022/09/16 08:05:37;;;;;;;1.45;0.40;;;22.70;78.40;;;;;;5064227;28;45508;-74
2022/09/16 08:08:05;;;;;;;1.50;0.50;;;22.70;78.70;;;;;;5063998;28;46590;-74
2022/09/16 08:10:33;;;;;;;0.20;0.20;;;22.70;78.70;;;;;;5084012;28;45958;-74
2022/09/16 08:13:00;;;;;;;0.40;0.30;;;22.70;78.60;;;;;;5085273;28;45518;-74
2022/09/16 08:15:27;;;;;;;0.68;0.28;;;22.70;78.80;;;;;;5084449;28;45321;-74
2022/09/16 08:17:53;;;;;;;0.20;0.17;;;22.70;78.30;;;;;;5084664;28;46500;-74
2022/09/16 08:20:20;;;;;;;0.40;0.30;;;22.70;78.80;;;;;;5084543;28;45245;-75
2022/09/16 08:22:47;;;;;;;0.30;0.15;;;22.70;78.90;;;;;;5085445;28;45339;-74
2022/09/16 08:25:15;;;;;;;0.82;0.28;;;22.70;78.30;;;;;;5083674;28;45565;-75
2022/09/16 08:27:44;;;;;;;0.50;0.30;;;22.70;78.90;;;;;;5064296;28;46355;-74
2022/09/16 08:30:11;;;;;;;0.20;0.20;;;22.70;79.10;;;;;;5064670;28;45402;-75
2022/09/16 08:32:38;;;;;;;0.70;0.38;;;22.70;79.50;;;;;;5064486;28;45355;-75
2022/09/16 08:35:06;;;;;;;0.30;0.20;;;22.70;79.20;;;;;;5064634;28;45340;-74
2022/09/16 08:37:34;;;;;;;0.13;0.13;;;22.70;79.20;;;;;;5064210;28;47550;-75
2022/09/16 08:40:02;;;;;;;1.50;0.30;;;22.70;80.00;;;;;;5064015;28;45362;-75
2022/09/16 08:42:49;;;;;;;0.35;0.20;;;22.70;80.10;;;;;;5064819;28;45363;-74
2022/09/16 08:45:25;;;;;;;0.32;0.30;;;22.70;80.10;;;;;;5067036;28;45464;-75
2022/09/16 08:48:09;;;;;;;0.17;0.17;;;22.70;79.20;;;;;;5067723;28;47916;-74
2022/09/16 08:50:40;;;;;;;0.28;0.20;;;22.70;79.70;;;;;;5067309;28;45320;-74
2022/09/16 08:53:17;;;;;;;0.20;0.20;;;22.70;79.90;;;;;;5067738;28;45305;-75
2022/09/16 08:55:47;;;;;;;0.10;0.10;;;22.70;81.00;;;;;;5067422;28;45448;-75
2022/09/16 08:58:18;;;;;;;0.40;0.30;;;22.80;79.60;;;;;;5067459;28;47323;-74
2022/09/16 09:00:48;;;;;;;0.10;0.10;;;22.70;79.10;;;;;;5067435;28;45396;-74
2022/09/16 09:03:25;;;;;;;0.28;0.22;;;22.80;78.70;;;;;;5067266;28;45552;-74
2022/09/16 09:05:54;;;;;;;0.25;0.13;;;22.80;78.60;;;;;;5066896;28;45365;-74
2022/09/16 09:08:42;;;;;;;0.45;0.20;;;22.80;78.60;;;;;;5067019;28;45249;-74
2022/09/16 09:11:16;;;;;;;0.20;0.20;;;22.80;78.20;;;;;;5067164;28;45348;-74
2022/09/16 09:14:00;;;;;;;0.73;0.20;;;22.80;78.10;;;;;;5067521;28;45337;-74
2022/09/16 09:16:36;;;;;;;0.10;0.10;;;22.80;78.20;;;;;;5067094;28;45561;-74
2022/09/16 09:19:20;;;;;;;0.25;0.10;;;22.80;78.20;;;;;;5067605;28;46666;-74
2022/09/16 09:21:56;;;;;;;0.43;0.10;;;22.90;78.20;;;;;;5067033;28;45324;-75
2022/09/16 09:24:37;;;;;;;0.28;0.28;;;22.90;77.90;;;;;;5067598;28;45285;-75
2022/09/16 09:27:13;;;;;;;0.10;0.10;;;22.90;77.70;;;;;;5064651;28;45273;-74
2022/09/16 09:29:58;;;;;;;0.20;0.20;;;22.90;77.70;;;;;;5067017;28;46845;-74
2022/09/16 09:32:34;;;;;;;0.13;0.10;;;22.90;77.80;;;;;;5067029;28;45350;-74
2022/09/16 09:35:15;;;;;;;0.20;0.15;;;22.90;78.50;;;;;;5081357;28;45394;-74
2022/09/16 09:38:04;;;;;;;0.43;0.17;;;22.90;78.30;;;;;;5087546;28;45242;-75
2022/09/16 09:40:35;;;;;;;0.25;0.20;;;22.90;78.50;;;;;;5083582;28;47595;-75
2022/09/16 09:43:09;;;;;;;0.55;0.30;;;22.90;77.80;;;;;;5087076;28;46405;-75
2022/09/16 09:45:41;;;;;;;0.30;0.17;;;22.90;78.00;;;;;;5087028;28;45377;-74
2022/09/16 09:48:18;;;;;;;0.68;0.10;;;22.80;77.90;;;;;;5087156;28;45558;-74
2022/09/16 09:50:47;;;;;;;0.25;0.10;;;22.90;78.30;;;;;;5087343;28;47744;-74
2022/09/16 09:53:20;;;;;;;0.40;0.20;;;22.90;78.00;;;;;;5086858;28;45343;-74
2022/09/16 09:55:48;;;;;;;0.85;0.10;;;22.90;77.90;;;;;;5086243;27;45265;-74
2022/09/16 09:58:26;;;;;;;0.38;0.10;;;22.80;78.30;;;;;;5086837;28;45450;-74
2022/09/16 10:00:57;;;;;;;0.10;0.10;;;22.80;77.70;;;;;;5086229;28;48240;-75
2022/09/16 10:03:25;;;;;;;0.10;0.10;;;22.90;77.90;;;;;;5087108;28;45343;-74
2022/09/16 10:05:52;;;;;;;0.10;0.10;;;22.80;77.60;;;;;;5086016;28;45289;-75
2022/09/16 10:08:29;;;;;;;0.20;0.10;;;22.80;77.70;;;;;;5065023;28;45461;-75
2022/09/16 10:10:58;;;;;;;0.17;0.15;;;22.80;77.70;;;;;;5047057;28;45341;-75
2022/09/16 10:16:51;;;;;;;0.10;0.10;;;22.80;77.30;;;;;;5065796;28;45261;-75
2022/09/16 10:19:22;;;;;;;1.02;0.30;;;22.90;77.10;;;;;;5069533;28;45516;-74
2022/09/16 10:21:52;;;;;;;0.20;0.20;;;22.80;77.20;;;;;;5063808;28;46079;-75
2022/09/16 10:24:31;;;;;;;0.32;0.20;;;22.80;77.20;;;;;;5066002;28;45267;-74
2022/09/16 10:26:59;;;;;;;0.28;0.10;;;22.80;77.00;;;;;;5066496;28;45264;-75
2022/09/16 10:29:26;;;;;;;0.43;0.20;;;22.90;77.00;;;;;;5066409;28;45358;-75
2022/09/16 10:31:57;;;;;;;0.10;0.10;;;22.80;76.90;;;;;;5065637;28;46276;-74
2022/09/16 10:34:29;;;;;;;0.30;0.20;;;22.80;77.10;;;;;;5066436;28;45166;-75
2022/09/16 10:37:14;;;;;;;0.20;0.10;;;22.80;77.10;;;;;;5066076;28;45140;-74
2022/09/16 10:39:44;;;;;;;0.85;0.20;;;22.80;77.20;;;;;;5066235;28;45283;-75
2022/09/16 10:42:18;;;;;;;0.10;0.05;;;22.80;76.80;;;;;;5065592;28;47948;-75
2022/09/16 10:44:47;;;;;;;0.65;0.32;;;22.80;77.00;;;;;;5065741;28;45904;-75
2022/09/16 10:47:20;;;;;;;0.60;0.10;;;22.80;77.10;;;;;;5065749;28;45274;-75
2022/09/16 10:49:49;;;;;;;0.10;0.10;;;22.80;77.20;;;;;;5066332;28;45455;-75
2022/09/16 10:52:17;;;;;;;0.73;0.17;;;22.80;77.10;;;;;;5066113;28;46615;-75
2022/09/16 10:54:45;;;;;;;0.10;0.10;;;22.70;78.30;;;;;;5065953;28;45414;-74
2022/09/16 10:57:23;;;;;;;0.57;0.10;;;22.80;76.80;;;;;;5066013;28;45350;-75
2022/09/16 10:59:58;;;;;;;0.00;0.00;;;22.70;77.50;;;;;;5066183;28;45597;-75
2022/09/16 11:02:43;;;;;;;0.43;0.20;;;22.70;77.70;;;;;;5065644;28;45501;-75
2022/09/16 11:05:18;;;;;;;0.22;0.10;;;22.70;76.30;;;;;;5065586;28;45282;-74
2022/09/16 11:07:54;;;;;;;0.57;0.30;;;22.70;76.80;;;;;;5064314;28;45250;-75
2022/09/16 11:10:26;;;;;;;0.28;0.10;;;22.80;76.80;;;;;;5066017;28;45291;-75
2022/09/16 11:13:16;;;;;;;0.17;0.15;;;22.80;76.80;;;;;;5065558;28;46490;-75
2022/09/16 11:15:58;;;;;;;0.45;0.20;;;22.70;76.70;;;;;;5059301;28;45336;-75
2022/09/16 11:18:42;;;;;;;0.10;0.10;;;22.70;77.00;;;;;;5065393;28;45217;-75
2022/09/16 11:21:34;;;;;;;0.52;0.15;;;22.80;76.80;;;;;;5065724;28;45301;-75
2022/09/16 11:24:13;;;;;;;0.43;0.20;;;22.70;76.80;;;;;;5061762;28;46866;-75
2022/09/16 11:26:47;;;;;;;0.10;0.10;;;22.70;76.60;;;;;;5064774;28;45341;-75
2022/09/16 11:29:48;;;;;;;0.55;0.20;;;22.80;76.90;;;;;;5134548;27;45351;-74
2022/09/16 11:32:22;;;;;;;0.10;0.10;;;22.80;76.00;;;;;;5119688;27;45268;-74
2022/09/16 11:35:01;;;;;;;0.90;0.15;;;22.70;76.80;;;;;;5122748;27;45323;-74
2022/09/16 11:37:34;;;;;;;0.20;0.20;;;22.70;76.70;;;;;;5121911;27;45593;-74
2022/09/16 11:40:15;;;;;;;0.20;0.10;;;22.70;76.20;;;;;;5119117;27;45379;-74
2022/09/16 11:42:43;;;;;;;0.15;0.10;;;22.70;76.10;;;;;;5121068;27;45379;-74
2022/09/16 11:45:26;;;;;;;0.45;0.10;;;22.70;76.80;;;;;;5122611;27;45244;-74
2022/09/16 11:48:17;;;;;;;1.55;0.10;;;22.70;77.70;;;;;;5121737;27;45432;-74
2022/09/16 11:50:50;;;;;;;0.88;0.20;;;22.70;78.40;;;;;;5101210;27;46306;-74
2022/09/16 11:53:34;;;;;;;0.88;0.15;;;22.70;78.40;;;;;;5115787;27;45350;-74
2022/09/16 11:56:06;;;;;;;0.93;0.32;;;22.60;78.30;;;;;;5121259;27;45307;-75
2022/09/16 11:58:39;;;;;;;0.10;0.10;;;22.60;78.40;;;;;;5121354;27;45255;-74
2022/09/16 12:01:15;;;;;;;0.40;0.20;;;22.60;78.50;;;;;;5120391;27;45432;-75
2022/09/16 12:03:48;;;;;;;0.17;0.10;;;22.60;78.00;;;;;;5120017;27;45321;-74
2022/09/16 12:06:18;;;;;;;0.70;0.20;;;22.70;78.70;;;;;;5121664;27;45280;-75
2022/09/16 12:08:54;;;;;;;1.58;0.20;;;22.70;78.00;;;;;;5115402;27;45613;-74
2022/09/16 12:11:31;;;;;;;0.00;0.00;;;22.60;77.90;;;;;;5121863;27;47040;-74
2022/09/16 12:14:05;;;;;;;0.20;0.20;;;22.60;77.80;;;;;;5122129;27;45229;-74
2022/09/16 12:16:39;;;;;;;0.10;0.10;;;22.60;78.20;;;;;;5121782;27;45283;-75
2022/09/16 12:19:13;;;;;;;0.30;0.10;;;22.60;77.80;;;;;;5122465;27;45360;-74
2022/09/16 12:21:44;;;;;;;0.65;0.10;;;22.60;77.90;;;;;;5121799;27;48695;-74
2022/09/16 12:24:20;;;;;;;1.42;0.20;;;22.60;78.00;;;;;;5122004;27;45493;-74
2022/09/16 12:26:51;;;;;;;0.20;0.20;;;22.70;78.70;;;;;;5121899;27;45263;-74
2022/09/16 12:29:23;;;;;;;0.10;0.10;;;22.60;78.20;;;;;;5120996;27;45431;-74
2022/09/16 12:31:55;;;;;;;0.43;0.20;;;22.60;78.70;;;;;;5121116;27;48098;-74
2022/09/16 12:34:27;;;;;;;0.25;0.15;;;22.70;78.40;;;;;;5121396;27;45395;-74
2022/09/16 12:36:59;;;;;;;0.15;0.08;;;22.60;78.90;;;;;;5121901;27;45306;-74
2022/09/16 12:39:27;;;;;;;0.32;0.20;;;22.60;78.70;;;;;;5112943;27;45370;-74
2022/09/16 12:42:15;;;;;;;0.30;0.15;;;22.60;79.10;;;;;;5108668;27;47459;-75
2022/09/16 12:44:56;;;;;;;0.30;0.17;;;22.60;79.20;;;;;;5107929;27;45370;-74
2022/09/16 12:47:56;;;;;;;0.40;0.15;;;22.60;79.60;;;;;;5101869;27;45277;-75
2022/09/16 12:50:44;;;;;;;0.32;0.20;;;22.60;79.60;;;;;;5107427;27;45456;-75
2022/09/16 12:53:45;;;;;;;0.65;0.25;;;22.60;80.30;;;;;;5107960;27;45463;-75
2022/09/16 12:56:20;;;;;;;0.08;0.08;;;22.60;80.40;;;;;;5095360;27;45465;-74
2022/09/16 12:59:24;;;;;;;0.10;0.10;;;22.60;80.10;;;;;;5104873;27;45268;-74
2022/09/16 13:01:54;;;;;;;0.20;0.20;;;22.60;80.10;;;;;;5051694;28;45493;-74
2022/09/16 13:04:34;;;;;;;0.25;0.10;;;22.60;80.30;;;;;;5099744;27;47967;-74
2022/09/16 13:07:01;;;;;;;0.38;0.20;;;22.60;80.00;;;;;;5102074;27;45264;-76
2022/09/16 13:09:32;;;;;;;0.10;0.10;;;22.60;80.30;;;;;;5101456;27;45225;-74
2022/09/16 13:12:01;;;;;;;0.50;0.20;;;22.60;80.00;;;;;;5105181;27;45778;-74
2022/09/16 13:14:31;;;;;;;0.32;0.10;;;22.60;80.00;;;;;;5106883;27;45428;-74